switch

Aliexpress kupony

W tabeli znajdują się wszystkie najważniejsze informacje o kuponach; między innymi kwota rabatu, minimalna kota zakupu, liczba dostępnych kuponów. Dzięki kuponom możesz trafić na Aliexpress okazje niedostępne dla innych. Tabela jest posortowana według daty dodania kuponu do bazy, od najnowszych.

Aliexpress kupony– jak korzystać z tabeli?

W tabeli są następujące kolumny z kodami rabatowymi sklepów na Aliexpress:

Statystyki kuponów sprzedawców

Liczba kuponów w bazie: 84802

Data dodania najnowszego kuponu: 2021-01-25 11:20:33

Ostatnia aktualizacja: 2021-01-25 11:34:52

Liczba dodanych dzisiaj: 16

Liczba zaktualizowanych dzisiaj: 940

Liczba dodanych wczoraj: 132

Nazwa sklepu Kupon MKZ Procent Liczba Link i zdjęcie Link mobilny Dodano Zaktualizowano
Shenzhen Xindatong Co., Ltd. Store $2.00 $2.01 100% 454 iScooter Electric Scooter Fron.... . 2021-01-24 18:50 08:38
Shenzhen K E technology co., LTD $5.00 $5.01 100% 492 Electric Bicycle 48V 20Ah 1500.... . 2021-01-24 18:50 2021-01-24
Okaylamp Store $1.00 $1.01 99% 42 3pcs Mini Square Mosaic Glass .... . 2021-01-24 18:50 09:11
CETULA Official Store $1.00 $1.01 99% 99995 Cetula 2020 New Design  Chunky.... . 2021-01-24 18:49 2021-01-24
Celiny Store $1.00 $1.01 99% 21 2020 Tote Bag Environmental Re.... . 2021-01-24 17:44 08:34
Bridal Dream $2.00 $2.01 100% 998 2020 Royal Flower Girl Dress f.... . 2021-01-24 17:44 2021-01-24
Sun Sara Cosmetics Limited (Guangzhou) $3.00 $5.00 60% 493 Professional Keratin Coconut S.... . 2021-01-24 17:24 2021-01-24
JUBEER Official Store $1.00 $3.00 33% 95 Allah Bismillah Islamic Wall A.... . 2021-01-24 16:46 2021-01-24
Y-J Shoe Store $3.00 $3.01 100% 9981 Sliver Woman Sandals Rhineston.... . 2021-01-24 16:45 2021-01-24
VRVOGUE Official Store $1.00 $1.01 99% 99789 Headband Wig Human Hair Straig.... . 2021-01-24 16:42 2021-01-24
Shop3615116 Store $2.00 $2.01 100% 9947 13.3. . 2021-01-24 16:42 2021-01-24
Y-AMIK Store $2.00 $2.01 100% 44 10inch LED Make-Up Ring Lamp W.... . 2021-01-24 16:42 2021-01-24
Ali-Celiny Store $1.00 $1.01 99% 110 brand style Brand Original Des.... . 2021-01-24 16:37 2021-01-24
TAZIRN Official Store $2.00 $2.01 100% 996 Elegant Cubic Zirconia Wedding.... . 2021-01-24 16:25 10:55
ORSUNCER HAIR Store $2.00 $2.01 100% 80 ORSUNCER Short Kinky Curly Hum.... . 2021-01-24 16:21 2021-01-24
ZK Watch Store $2.00 $2.01 100% 298 CARNIVAL I&W Classic Rose Gold.... . 2021-01-24 16:08 08:37
PAGANI DESIGN Homage Store $1.00 $1.01 99% 493 BENYAR 2020 New Quartz Men's W.... . 2021-01-24 16:08 2021-01-24
BEKE MATA Official Store $1.00 $1.01 99% 40 BEKE MATA Baby Boy Shirts Long.... . 2021-01-24 16:08 2021-01-24
Rogbid Online Store $3.00 $3.01 100% 1610 Rogbid GT 2 Smart Watch Men Wo.... . 2021-01-24 16:08 11:26
Ali-Celiny Unique design Store $1.00 $1.01 99% 105 Bags for women Girls' small ba.... . 2021-01-24 16:08 2021-01-24
SingWing Technology Co.,Ltd $5.00 $5.01 100% 70 61 key music  keyboard electro.... . 2021-01-24 16:07 11:33
marcool Official Store $2.00 $2.01 100% 499 MARCOOL Tactical Optical  Weav.... . 2021-01-24 16:04 2021-01-24
Shop911140143 Store $2.00 $6.00 33% 100 For Samsung M21S Case Painted .... . 2021-01-24 16:04 2021-01-24
Shop911346033 Store $4.00 $4.01 100% 283 Autodesk Revit 2021  For Windo.... . 2021-01-24 15:22 09:05
Shop4987334 Store $1.00 $1.01 99% 1946 Men Gym Sportswear Compression.... . 2021-01-24 15:21 2021-01-24
Massager factory Store Store $1.00 $1.01 99% 184 Beauty Electric Blackhead Inst.... . 2021-01-24 15:21 2021-01-24
La Monada 925 Silver Store $1.00 $1.01 99% 41 Genuine 925 Sterling Silver Ki.... . 2021-01-24 15:19 2021-01-24
VINAPOBO Official Store Store $1.00 $1.01 99% 193 vinapobo Women Fashion Retro P.... . 2021-01-24 15:18 2021-01-24
PHERON Official Store $1.00 $1.01 99% 46 Women Casual Sport Shoes Fashi.... . 2021-01-24 15:17 2021-01-24
Maxztill Store $2.00 $2.01 100% 38 6/10 Inch Ring Light Video Liv.... . 2021-01-24 15:16 08:36
Guangzhou wholesale $1.00 $1.01 99% 19998 SKHEK Spring/Autumn Flats Chil.... . 2021-01-24 15:15 2021-01-24
New exhibition Official Store $1.00 $1.01 99% 99966 New exhibition Men Women's Rai.... . 2021-01-24 13:46 11:20
Pscownlg FIVE Store $1.00 $1.01 99% 9857 Aqua Shoes Summer Shoes Men Br.... . 2021-01-24 13:36 2021-01-24
Shop910320291 Store $1.00 $1.01 99% 40 extra fee.... . 2021-01-24 13:35 11:05
Aqara Official-Flagship Store $1.00 $1.01 99% 496 Aqara temperature/humidity sen.... . 2021-01-24 13:35 2021-01-24
metable partyfavor Store $1.00 $1.01 99% 94 METABLE 12 Crystal Handles And.... . 2021-01-24 13:35 2021-01-24
Keller Tools Store $6.00 $6.01 100% 40 GP09 3 Inch Diamond Floor Typh.... . 2021-01-24 13:26 11:34
Cacomax Official Store $1.00 $1.01 99% 94 Bucket Small Bag 2021 New Tren.... . 2021-01-24 13:25 09:57
A Healthy and Beautiful Life Store $1.00 $1.01 99% 2 Womens Sexy Lace Sleepwear Sum.... . 2021-01-24 13:25 11:21
BONDA BONDA Store $1.00 $1.01 99% 470 BONDA dual USB  power socket E.... . 2021-01-24 13:23 10:10
(Global) Shopping Store $2.00 $2.01 100% 1999 Brand Summer Breathable Men's .... . 2021-01-24 13:19 11:17
Animation Gift Store $1.00 $3.00 33% 792 4Designs - small 8CM Canvas La.... . 2021-01-24 13:18 11:34
duoremi BAG Store $1.00 $3.00 33% 3219 4Designs - NEW ON Plush Kitty .... . 2021-01-24 13:15 10:28
BeauShoes Store $5.00 $5.01 100% 190 Penny Loafers Men Shoes Genuin.... . 2021-01-24 13:12 11:21
Shop5885460 Store $1.00 $1.01 99% 44 Women Handbag Shoulder Bag Fem.... . 2021-01-24 13:09 2021-01-24
DESYONI BAG Store $1.00 $1.01 99% 479 Casual Simple Bag Women's Popu.... . 2021-01-24 13:09 2021-01-24
ROMSUN Factory Store $1.00 $1.01 99% 265 Arm Automatic Digital Blood Pr.... . 2021-01-24 13:08 10:33
ROMSUN Healthy Factory Store $2.00 $2.01 100% 183 Kids Fashion Sneakers Boys Gir.... . 2021-01-24 13:08 2021-01-24
MENURRA Official Store $1.00 $1.01 99% 84 Luxury Handbag Women Bag Desig.... . 2021-01-24 13:07 2021-01-24
Shop900254057 Store $1.19 $1.21 98% 46 Baseus 30W Quick Charge 4.0 3..... . 2021-01-24 13:07 09:06

Wyświetlono kupony od 51 do 100 z łącznej liczby 84 802 kuponów w bazie.

2